< < Back
Terminal Aerodrome Forecast


Current Version              Previous Versions:   1  2  3  4  5  6  7  8  9  

Terminal Aerodrome Forecast

785
FTUS42 KFFC 030912 AAA
TAFPDK
TAF AMD
KPDK 030912Z 0309/0406 24008KT P6SM FEW050 BKN070
     FM031000 23008KT P6SM BKN010
     FM031400 25012KT P6SM BKN025 BKN250
     FM031600 26015G25KT P6SM VCSH SCT050 BKN250 PROB30 0319/0323
      4SM TSRA BKN025CB
     FM040100 27008KT P6SM SCT040 BKN080=

Latest METAR

902
SAUS70 KWBC 031000 RRL
MTRPDK
METAR KPDK 030953Z AUTO 22009KT 5SM BR FEW065 23/22 A2995 RMK AO2 SLP124
T02330217 TSNO


USA.gov is the U.S. government's official web portal to all federal, state and local government web resources and services.